createdAt,value
2022-08-26T00:01:56.455Z,100229.59
2022-08-26T00:04:25.854Z,100234.03
2022-08-26T00:06:57.336Z,100233.56
2022-08-26T00:09:26.380Z,100218.88
2022-08-26T00:11:54.490Z,100210.69
2022-08-26T00:14:28.319Z,100225.81
2022-08-26T00:16:58.716Z,100211.53
2022-08-26T00:19:25.916Z,100212.78
2022-08-26T00:21:53.261Z,100225.34
2022-08-26T00:24:21.911Z,100201.69
2022-08-26T00:26:49.889Z,100207.50
2022-08-26T00:29:19.162Z,100191.13
2022-08-26T00:31:48.650Z,100200.84
2022-08-26T00:34:19.500Z,100197.66
2022-08-26T00:36:47.941Z,100205.81
2022-08-26T00:39:20.127Z,100201.72
2022-08-26T00:41:47.716Z,100188.69
2022-08-26T00:44:15.056Z,100188.34
2022-08-26T00:46:47.183Z,100187.88
2022-08-26T00:49:44.631Z,100188.69
2022-08-26T00:52:18.683Z,100188.72
2022-08-26T00:54:53.964Z,100182.13
2022-08-26T00:57:23.486Z,100163.00
2022-08-26T00:59:55.379Z,100185.81
2022-08-26T01:02:24.206Z,100194.72
2022-08-26T01:04:56.197Z,100149.16
2022-08-26T01:07:27.421Z,100176.44
2022-08-26T01:09:59.737Z,100173.13
2022-08-26T01:12:29.394Z,100167.88
2022-08-26T01:14:56.819Z,100150.34
2022-08-26T01:17:24.053Z,100169.06
2022-08-26T01:20:14.209Z,100178.34
2022-08-26T01:23:09.844Z,100176.81
2022-08-26T01:25:45.082Z,100165.75
2022-08-26T01:28:21.879Z,100163.66
2022-08-26T01:30:53.191Z,100182.78
2022-08-26T01:33:26.703Z,100173.41
2022-08-26T01:35:53.910Z,100164.84
2022-08-26T01:38:21.626Z,100180.38
2022-08-26T01:40:51.599Z,100172.19
2022-08-26T01:43:25.314Z,100141.66
2022-08-26T01:45:55.140Z,100148.13
2022-08-26T01:48:31.997Z,100186.78
2022-08-26T01:51:01.049Z,100157.53
2022-08-26T01:53:28.344Z,100194.97
2022-08-26T01:55:59.232Z,100182.75
2022-08-26T01:58:40.465Z,100202.72
2022-08-26T02:01:08.078Z,100210.47
2022-08-26T02:03:51.040Z,100232.13
2022-08-26T02:06:19.872Z,100232.03
2022-08-26T02:08:52.343Z,100265.81
2022-08-26T02:11:19.674Z,100284.66
2022-08-26T02:13:52.351Z,100271.53
2022-08-26T02:16:27.265Z,100271.94
2022-08-26T02:18:55.962Z,100313.81
2022-08-26T02:21:24.867Z,100317.06
2022-08-26T02:23:52.563Z,100303.97
2022-08-26T02:26:27.028Z,100323.97
2022-08-26T02:29:07.597Z,100303.03
2022-08-26T02:31:35.023Z,100300.81
2022-08-26T02:34:16.559Z,100299.16
2022-08-26T02:36:44.245Z,100286.81
2022-08-26T02:39:12.084Z,100299.03
2022-08-26T02:41:45.310Z,100310.38
2022-08-26T02:44:13.617Z,100323.84
2022-08-26T02:46:41.871Z,100339.28
2022-08-26T02:49:15.744Z,100316.50
2022-08-26T02:51:44.652Z,100307.59
2022-08-26T02:54:12.054Z,100300.91
2022-08-26T02:56:39.669Z,100297.13
2022-08-26T02:59:07.120Z,100278.19
2022-08-26T03:01:36.175Z,100305.53
2022-08-26T03:04:05.071Z,100287.09
2022-08-26T03:06:33.064Z,100313.00
2022-08-26T03:09:00.198Z,100318.53
2022-08-26T03:11:30.941Z,100323.41
2022-08-26T03:14:03.436Z,100320.50
2022-08-26T03:16:36.435Z,100345.84
2022-08-26T03:19:06.052Z,100337.66
2022-08-26T03:21:33.784Z,100305.06
2022-08-26T03:24:03.933Z,100307.41
2022-08-26T03:26:31.551Z,100319.59
2022-08-26T03:29:17.546Z,100314.66
2022-08-26T03:31:46.871Z,100308.94
2022-08-26T03:34:15.563Z,100311.31
2022-08-26T03:36:43.840Z,100321.59
2022-08-26T03:39:14.022Z,100329.34
2022-08-26T03:41:45.259Z,100311.81
2022-08-26T03:44:13.035Z,100319.50
2022-08-26T03:46:41.671Z,100301.19
2022-08-26T03:49:11.530Z,100311.41
2022-08-26T03:51:39.599Z,100315.06
2022-08-26T03:54:09.767Z,100311.13
2022-08-26T03:56:37.249Z,100345.38
2022-08-26T03:59:07.642Z,100313.72
2022-08-26T04:01:35.743Z,100337.78
2022-08-26T04:04:03.520Z,100322.03
2022-08-26T04:06:45.195Z,100330.16
2022-08-26T04:09:18.695Z,100324.84
2022-08-26T04:11:50.632Z,100320.78
2022-08-26T04:14:21.883Z,100308.56
2022-08-26T04:16:52.846Z,100328.38
2022-08-26T04:19:24.151Z,100329.31
2022-08-26T04:21:53.404Z,100319.88
2022-08-26T04:24:24.226Z,100337.47
2022-08-26T04:26:51.588Z,100315.19
2022-08-26T04:29:23.841Z,100325.50
2022-08-26T04:31:55.582Z,100328.84
2022-08-26T04:34:28.380Z,100313.72
2022-08-26T04:36:56.752Z,100317.31
2022-08-26T04:39:24.327Z,100318.06
2022-08-26T04:41:55.471Z,100323.47
2022-08-26T04:44:27.844Z,100328.69
2022-08-26T04:46:55.232Z,100302.09
2022-08-26T04:49:23.189Z,100318.47
2022-08-26T04:51:53.603Z,100331.34
2022-08-26T04:54:22.284Z,100308.41
2022-08-26T04:56:50.844Z,100309.13
2022-08-26T04:59:18.403Z,100322.84
2022-08-26T05:01:52.291Z,100326.50
2022-08-26T05:04:21.288Z,100335.84
2022-08-26T05:06:50.881Z,100321.69
2022-08-26T05:09:19.793Z,100328.19
2022-08-26T05:11:48.544Z,100337.97
2022-08-26T05:14:19.728Z,100333.59
2022-08-26T05:16:47.778Z,100329.28
2022-08-26T05:19:17.189Z,100319.53
2022-08-26T05:21:48.807Z,100332.75
2022-08-26T05:24:17.268Z,100330.44
2022-08-26T05:26:47.233Z,100323.59
2022-08-26T05:29:15.996Z,100311.88
2022-08-26T05:31:44.243Z,100314.88
2022-08-26T05:34:13.965Z,100318.56
2022-08-26T05:36:41.528Z,100317.31
2022-08-26T05:39:10.546Z,100314.13
2022-08-26T05:41:41.237Z,100319.09
2022-08-26T05:44:11.472Z,100314.22
2022-08-26T05:46:40.222Z,100317.94
2022-08-26T05:49:12.808Z,100326.50
2022-08-26T05:51:41.818Z,100324.13
2022-08-26T05:54:10.342Z,100315.16
2022-08-26T05:56:39.859Z,100333.97
2022-08-26T05:59:14.546Z,100313.63
2022-08-26T06:01:43.917Z,100315.72
2022-08-26T06:04:12.160Z,100281.84
2022-08-26T06:06:41.732Z,100305.59
2022-08-26T06:09:11.390Z,100289.31
2022-08-26T06:11:39.322Z,100289.31
2022-08-26T06:14:08.059Z,100283.59
2022-08-26T06:16:40.758Z,100288.53
2022-08-26T06:19:11.590Z,100290.56
2022-08-26T06:21:42.300Z,100307.34
2022-08-26T06:24:32.602Z,100321.22
2022-08-26T06:27:05.386Z,100316.75
2022-08-26T06:29:34.863Z,100324.53
2022-08-26T06:32:04.615Z,100318.00
2022-08-26T06:34:32.003Z,100315.53
2022-08-26T06:37:02.688Z,100325.75
2022-08-26T06:39:31.561Z,100308.59
2022-08-26T06:42:00.714Z,100320.84
2022-08-26T06:44:30.168Z,100309.00
2022-08-26T06:46:57.584Z,100313.47
2022-08-26T06:49:27.726Z,100300.41
2022-08-26T06:51:58.841Z,100304.84
2022-08-26T06:54:28.062Z,100287.66
2022-08-26T06:56:57.028Z,100310.50
2022-08-26T06:59:25.308Z,100294.09
2022-08-26T07:01:53.417Z,100273.59
2022-08-26T07:04:23.100Z,100278.47
2022-08-26T07:06:54.078Z,100267.84
2022-08-26T07:09:28.559Z,100268.59
2022-08-26T07:11:56.582Z,100258.31
2022-08-26T07:14:26.240Z,100239.03
2022-08-26T07:16:54.308Z,100244.78
2022-08-26T07:19:30.209Z,100257.78
2022-08-26T07:22:05.417Z,100247.97
2022-08-26T07:24:35.144Z,100236.91
2022-08-26T07:27:06.473Z,100249.94
2022-08-26T07:29:34.957Z,100235.97
2022-08-26T07:32:02.858Z,100216.69
2022-08-26T07:34:32.298Z,100213.38
2022-08-26T07:37:01.027Z,100215.38
2022-08-26T07:39:28.707Z,100210.75
2022-08-26T07:42:07.512Z,100182.03
2022-08-26T07:44:37.714Z,100180.34
2022-08-26T07:47:10.197Z,100177.81
2022-08-26T07:49:52.657Z,100128.94
2022-08-26T07:52:25.314Z,100161.22
2022-08-26T07:54:55.030Z,100159.50
2022-08-26T07:57:22.207Z,100159.44
2022-08-26T07:59:52.090Z,100139.69
2022-08-26T08:02:21.396Z,100149.44
2022-08-26T08:04:48.977Z,100121.56
2022-08-26T08:07:16.469Z,100114.16
2022-08-26T08:09:43.872Z,100140.28
2022-08-26T08:12:14.204Z,100116.50
2022-08-26T08:14:45.374Z,100130.81
2022-08-26T08:17:14.580Z,100129.50
2022-08-26T08:19:43.544Z,100145.84
2022-08-26T08:22:17.941Z,100168.66
2022-08-26T08:24:49.786Z,100158.34
2022-08-26T08:27:22.792Z,100162.00
2022-08-26T08:29:54.979Z,100148.66
2022-08-26T08:32:23.788Z,100164.31
2022-08-26T08:34:51.153Z,100168.44
2022-08-26T08:37:18.863Z,100160.25
2022-08-26T08:39:46.046Z,100159.72
2022-08-26T08:42:48.757Z,100178.34
2022-08-26T08:45:54.934Z,100156.97
2022-08-26T08:48:27.861Z,100142.19
2022-08-26T08:51:22.272Z,100148.09
2022-08-26T08:53:54.768Z,100156.34
2022-08-26T08:56:28.243Z,100158.28
2022-08-26T08:59:18.284Z,100151.25
2022-08-26T09:01:58.934Z,100158.63
2022-08-26T09:04:55.243Z,100159.31
2022-08-26T09:07:38.426Z,100163.44
2022-08-26T09:10:25.144Z,100163.81
2022-08-26T09:12:53.103Z,100153.50
2022-08-26T09:15:39.163Z,100139.00
2022-08-26T09:18:19.058Z,100130.25
2022-08-26T09:20:56.170Z,100137.47
2022-08-26T09:23:24.083Z,100136.22
2022-08-26T09:25:55.967Z,100148.03
2022-08-26T09:28:25.383Z,100156.03
2022-08-26T09:31:09.208Z,100164.81
2022-08-26T09:33:38.070Z,100157.00
2022-08-26T09:36:15.992Z,100176.22
2022-08-26T09:38:43.943Z,100164.91
2022-08-26T09:41:25.013Z,100164.63
2022-08-26T09:44:04.588Z,100206.69
2022-08-26T09:46:33.130Z,100185.22
2022-08-26T09:49:20.662Z,100193.03
2022-08-26T09:51:50.131Z,100184.41
2022-08-26T09:54:30.524Z,100187.81
2022-08-26T09:57:27.286Z,100184.28
2022-08-26T09:59:56.530Z,100178.31
2022-08-26T10:02:41.855Z,100195.09
2022-08-26T10:05:30.449Z,100183.38
2022-08-26T10:07:59.618Z,100166.34
2022-08-26T10:10:33.436Z,100175.44
2022-08-26T10:13:16.507Z,100165.97
2022-08-26T10:15:57.944Z,100161.69
2022-08-26T10:18:34.159Z,100174.81
2022-08-26T10:21:12.574Z,100156.56
2022-08-26T10:23:47.442Z,100145.72
2022-08-26T10:26:19.489Z,100141.25
2022-08-26T10:29:08.002Z,100149.81
2022-08-26T10:31:49.080Z,100129.09
2022-08-26T10:34:19.380Z,100144.69
2022-08-26T10:37:15.707Z,100137.03
2022-08-26T10:40:02.390Z,100126.09
2022-08-26T10:42:37.549Z,100116.56
2022-08-26T10:45:14.899Z,100139.06
2022-08-26T10:48:01.511Z,100113.03
2022-08-26T10:50:42.308Z,100131.28
2022-08-26T10:53:46.258Z,100145.91
2022-08-26T10:56:32.853Z,100160.69
2022-08-26T10:59:12.367Z,100135.44
2022-08-26T11:02:01.209Z,100145.38
2022-08-26T11:04:48.392Z,100109.22
2022-08-26T11:07:46.428Z,100143.59
2022-08-26T11:10:42.616Z,100132.50
2022-08-26T11:13:12.176Z,100131.25
2022-08-26T11:15:39.198Z,100129.16
2022-08-26T11:18:09.900Z,100115.66
2022-08-26T11:20:41.768Z,100137.31
2022-08-26T11:23:12.669Z,100119.72
2022-08-26T11:26:05.443Z,100141.34
2022-08-26T11:28:46.148Z,100115.03
2022-08-26T11:31:26.709Z,100120.34
2022-08-26T11:33:58.183Z,100126.13
2022-08-26T11:36:55.738Z,100118.16
2022-08-26T11:39:24.505Z,100113.22
2022-08-26T11:41:54.637Z,100102.13
2022-08-26T11:44:24.725Z,100103.38
2022-08-26T11:46:58.237Z,100118.66
2022-08-26T11:49:27.184Z,100122.25
2022-08-26T11:52:20.914Z,100109.59
2022-08-26T11:55:09.715Z,100095.72
2022-08-26T11:57:47.194Z,100100.22
2022-08-26T12:00:33.480Z,100107.34
2022-08-26T12:03:06.498Z,100097.53
2022-08-26T12:05:44.287Z,100093.25
2022-08-26T12:08:16.649Z,100088.16
2022-08-26T12:10:44.283Z,100080.41
2022-08-26T12:13:22.367Z,100062.31
2022-08-26T12:15:59.500Z,100088.03
2022-08-26T12:18:33.277Z,100083.78
2022-08-26T12:21:13.876Z,100096.59
2022-08-26T12:23:48.140Z,100090.47
2022-08-26T12:26:24.904Z,100060.78
2022-08-26T12:29:09.974Z,100077.91
2022-08-26T12:31:48.019Z,100066.34
2022-08-26T12:34:18.029Z,100055.81
2022-08-26T12:36:57.480Z,100066.22
2022-08-26T12:39:26.971Z,100067.16
2022-08-26T12:41:57.085Z,100053.19
2022-08-26T12:44:53.173Z,100066.00
2022-08-26T12:47:42.516Z,100053.75
2022-08-26T12:50:28.304Z,100050.50
2022-08-26T12:52:58.017Z,100057.09
2022-08-26T12:55:33.243Z,100056.03
2022-08-26T12:58:37.404Z,100055.38
2022-08-26T13:01:05.059Z,100046.81
2022-08-26T13:03:43.689Z,100064.84
2022-08-26T13:06:16.031Z,100036.78
2022-08-26T13:08:44.762Z,100042.66
2022-08-26T13:11:24.936Z,100034.22
2022-08-26T13:14:10.170Z,100039.91
2022-08-26T13:16:39.538Z,99996.69
2022-08-26T13:19:12.494Z,100014.81
2022-08-26T13:21:53.743Z,100027.88
2022-08-26T13:24:42.431Z,100035.97
2022-08-26T13:27:12.981Z,100020.81
2022-08-26T13:29:40.598Z,100050.97
2022-08-26T13:32:09.250Z,100032.38
2022-08-26T13:34:38.396Z,100018.41
2022-08-26T13:37:06.559Z,100006.56
2022-08-26T13:39:34.038Z,100002.06
2022-08-26T13:42:01.586Z,100009.84
2022-08-26T13:44:29.087Z,100004.97
2022-08-26T13:46:56.280Z,100005.75
2022-08-26T13:49:23.518Z,99993.78
2022-08-26T13:51:50.724Z,100007.50
2022-08-26T13:54:18.016Z,99999.19
2022-08-26T13:56:45.851Z,100007.84
2022-08-26T13:59:13.472Z,100012.13
2022-08-26T14:01:40.935Z,100001.06
2022-08-26T14:04:08.929Z,99996.19
2022-08-26T14:06:36.436Z,100007.19
2022-08-26T14:09:04.575Z,100001.88
2022-08-26T14:11:41.114Z,100012.47
2022-08-26T14:14:19.483Z,100016.97
2022-08-26T14:16:58.919Z,100005.91
2022-08-26T14:19:30.496Z,100000.13
2022-08-26T14:21:59.512Z,100020.13
2022-08-26T14:24:26.693Z,100005.22
2022-08-26T14:26:54.118Z,99996.69
2022-08-26T14:29:21.442Z,99989.97
2022-08-26T14:31:48.887Z,100005.56
2022-08-26T14:34:16.428Z,100001.72
2022-08-26T14:36:43.868Z,99988.91
2022-08-26T14:39:13.727Z,99990.97
2022-08-26T14:42:01.367Z,99994.13
2022-08-26T14:44:31.861Z,99995.94
2022-08-26T14:47:03.024Z,99989.25
2022-08-26T14:49:31.819Z,99997.56
2022-08-26T14:51:59.487Z,100005.91
2022-08-26T14:54:26.979Z,99989.50
2022-08-26T14:57:00.171Z,99982.31
2022-08-26T14:59:34.165Z,99990.66
2022-08-26T15:02:01.945Z,100002.53
2022-08-26T15:04:29.518Z,99983.50
2022-08-26T15:06:59.187Z,99974.38
2022-08-26T15:09:28.696Z,99991.59
2022-08-26T15:11:56.397Z,99987.19
2022-08-26T15:14:24.359Z,99990.06
2022-08-26T15:16:56.072Z,100002.06
2022-08-26T15:19:25.067Z,99989.81
2022-08-26T15:21:52.479Z,99992.25
2022-08-26T15:24:22.330Z,100000.56
2022-08-26T15:26:50.226Z,99997.31
2022-08-26T15:29:17.549Z,99987.75
2022-08-26T15:31:45.325Z,99996.31
2022-08-26T15:34:16.656Z,99997.69
2022-08-26T15:36:46.661Z,100005.97
2022-08-26T15:39:15.939Z,100003.19
2022-08-26T15:41:43.184Z,100006.19
2022-08-26T15:44:11.540Z,99989.28
2022-08-26T15:46:39.400Z,100002.47
2022-08-26T15:49:07.991Z,99983.03
2022-08-26T15:51:45.408Z,99983.94
2022-08-26T15:54:13.943Z,99989.84
2022-08-26T15:56:41.397Z,99987.41
2022-08-26T15:59:11.905Z,99981.94
2022-08-26T16:01:40.151Z,99990.94
2022-08-26T16:04:07.707Z,99988.97
2022-08-26T16:06:37.389Z,99996.00
2022-08-26T16:09:06.314Z,100000.72
2022-08-26T16:11:36.128Z,99985.78
2022-08-26T16:14:04.971Z,99994.97
2022-08-26T16:16:32.432Z,99992.97
2022-08-26T16:19:03.263Z,99987.06
2022-08-26T16:21:35.032Z,99995.25
2022-08-26T16:24:04.896Z,99989.22
2022-08-26T16:26:36.474Z,99999.59
2022-08-26T16:29:07.146Z,99996.91
2022-08-26T16:31:35.373Z,100003.56
2022-08-26T16:34:02.654Z,99990.25
2022-08-26T16:36:30.201Z,100002.31
2022-08-26T16:38:57.574Z,99998.53
2022-08-26T16:41:27.572Z,99999.88
2022-08-26T16:43:55.492Z,100001.94
2022-08-26T16:46:25.878Z,100002.97
2022-08-26T16:48:55.028Z,99972.69
2022-08-26T16:51:24.646Z,99987.44
2022-08-26T16:53:52.475Z,99986.72
2022-08-26T16:56:33.795Z,99996.09
2022-08-26T16:59:04.305Z,99994.81
2022-08-26T17:01:31.976Z,100002.75
2022-08-26T17:03:59.511Z,99993.91
2022-08-26T17:06:27.055Z,100002.16
2022-08-26T17:08:54.439Z,99992.91
2022-08-26T17:11:22.013Z,99997.50
2022-08-26T17:13:49.275Z,99993.16
2022-08-26T17:16:16.770Z,99998.97
2022-08-26T17:18:44.375Z,99998.72
2022-08-26T17:21:13.844Z,99998.84
2022-08-26T17:23:42.652Z,100011.50
2022-08-26T17:26:12.265Z,99990.09
2022-08-26T17:28:39.857Z,99985.69
2022-08-26T17:31:08.627Z,100012.75
2022-08-26T17:33:36.197Z,100009.13
2022-08-26T17:36:06.499Z,100001.81
2022-08-26T17:38:34.603Z,100003.44
2022-08-26T17:41:01.990Z,99998.06
2022-08-26T17:43:29.536Z,99992.81
2022-08-26T17:46:06.899Z,99989.13
2022-08-26T17:48:36.416Z,99998.50
2022-08-26T17:51:14.434Z,100005.13
2022-08-26T17:53:42.879Z,99993.19
2022-08-26T17:56:13.912Z,100006.31
2022-08-26T17:58:51.036Z,99994.53
2022-08-26T18:01:21.164Z,99997.84
2022-08-26T18:03:49.421Z,99993.72
2022-08-26T18:06:16.852Z,99993.88
2022-08-26T18:08:45.028Z,99984.00
2022-08-26T18:11:16.133Z,100004.84
2022-08-26T18:13:47.073Z,99996.75
2022-08-26T18:16:17.739Z,99978.09
2022-08-26T18:18:46.680Z,99980.59
2022-08-26T18:21:17.940Z,99991.97
2022-08-26T18:23:47.299Z,99984.41
2022-08-26T18:26:20.695Z,100003.91
2022-08-26T18:28:48.149Z,99989.97
2022-08-26T18:31:16.195Z,99997.84
2022-08-26T18:33:44.732Z,99988.84
2022-08-26T18:36:36.694Z,99998.53
2022-08-26T18:39:06.315Z,99991.66
2022-08-26T18:41:39.195Z,99992.59
2022-08-26T18:44:09.465Z,100004.84
2022-08-26T18:46:39.140Z,99991.06
2022-08-26T18:49:08.684Z,99992.69
2022-08-26T18:51:36.896Z,100005.72
2022-08-26T18:54:06.780Z,100000.19
2022-08-26T18:56:36.830Z,100005.84
2022-08-26T18:59:06.516Z,100000.91
2022-08-26T19:01:35.511Z,99999.44
2022-08-26T19:04:05.220Z,100001.50
2022-08-26T19:06:35.636Z,100006.06
2022-08-26T19:09:05.073Z,100009.81
2022-08-26T19:11:37.581Z,100004.59
2022-08-26T19:14:13.292Z,100005.22
2022-08-26T19:16:42.584Z,100004.47
2022-08-26T19:19:10.788Z,99989.75
2022-08-26T19:21:39.247Z,100000.72
2022-08-26T19:24:15.465Z,100018.81
2022-08-26T19:26:48.010Z,100016.03
2022-08-26T19:31:44.995Z,99990.41
2022-08-26T19:34:18.330Z,100012.41
2022-08-26T19:36:49.064Z,100013.81
2022-08-26T19:39:16.668Z,100024.88
2022-08-26T19:41:44.651Z,100020.81
2022-08-26T19:44:35.340Z,100023.44
2022-08-26T19:47:08.754Z,99998.97
2022-08-26T19:49:36.594Z,100009.56
2022-08-26T19:52:05.997Z,100014.44
2022-08-26T19:54:34.807Z,100019.31
2022-08-26T19:57:02.169Z,100033.19
2022-08-26T19:59:29.664Z,100013.25
2022-08-26T20:02:01.200Z,100034.06
2022-08-26T20:04:31.943Z,100050.16
2022-08-26T20:07:01.456Z,100026.84
2022-08-26T20:09:30.423Z,100034.78
2022-08-26T20:11:57.682Z,100037.53
2022-08-26T20:14:26.725Z,100036.28
2022-08-26T20:16:54.453Z,100049.56
2022-08-26T20:19:40.134Z,100043.50
2022-08-26T20:22:08.135Z,100057.94
2022-08-26T20:24:36.211Z,100048.28
2022-08-26T20:27:07.656Z,100058.66
2022-08-26T20:29:37.644Z,100067.63
2022-08-26T20:32:08.103Z,100054.06
2022-08-26T20:34:36.739Z,100049.63
2022-08-26T20:37:04.811Z,100049.13
2022-08-26T20:39:32.037Z,100050.81
2022-08-26T20:41:59.910Z,100036.22
2022-08-26T20:44:27.828Z,100049.13
2022-08-26T20:46:56.837Z,100040.19
2022-08-26T20:49:24.473Z,100043.25
2022-08-26T20:51:52.149Z,100048.00
2022-08-26T20:54:25.012Z,100055.50
2022-08-26T20:56:56.979Z,100061.16
2022-08-26T20:59:25.427Z,100065.69
2022-08-26T21:01:53.533Z,100062.94
2022-08-26T21:04:23.419Z,100049.44
2022-08-26T21:06:52.193Z,100041.72
2022-08-26T21:09:22.879Z,100061.34
2022-08-26T21:11:50.735Z,100057.19
2022-08-26T21:14:19.165Z,100059.38
2022-08-26T21:16:46.980Z,100041.09
2022-08-26T21:19:18.255Z,100044.34
2022-08-26T21:21:47.747Z,100049.66
2022-08-26T21:24:16.036Z,100063.50
2022-08-26T21:26:44.023Z,100060.75
2022-08-26T21:29:13.695Z,100026.66
2022-08-26T21:31:46.099Z,100033.81
2022-08-26T21:34:18.941Z,100040.41
2022-08-26T21:36:47.731Z,100024.13
2022-08-26T21:39:15.767Z,100038.94
2022-08-26T21:41:44.469Z,100029.56
2022-08-26T21:44:14.046Z,100041.06
2022-08-26T21:46:42.881Z,100042.22
2022-08-26T21:49:12.539Z,100040.22
2022-08-26T21:51:43.355Z,100038.16
2022-08-26T21:54:11.856Z,100034.47
2022-08-26T21:56:44.769Z,100026.31
2022-08-26T21:59:16.519Z,100029.19
2022-08-26T22:01:43.990Z,100028.31
2022-08-26T22:04:11.680Z,100017.94
2022-08-26T22:06:45.853Z,100022.00
2022-08-26T22:09:14.494Z,100044.28
2022-08-26T22:11:42.575Z,100017.47
2022-08-26T22:14:10.218Z,99998.72
2022-08-26T22:16:40.329Z,100030.25
2022-08-26T22:19:08.234Z,100035.28
2022-08-26T22:21:41.717Z,100027.41
2022-08-26T22:24:12.714Z,100021.38
2022-08-26T22:26:40.297Z,100024.25
2022-08-26T22:29:07.929Z,100012.03
2022-08-26T22:31:37.988Z,100023.88
2022-08-26T22:34:08.777Z,100016.94
2022-08-26T22:36:43.703Z,100023.91
2022-08-26T22:39:16.816Z,100024.84
2022-08-26T22:41:45.762Z,100017.16
2022-08-26T22:44:13.297Z,100016.78
2022-08-26T22:46:43.347Z,100037.56
2022-08-26T22:49:12.746Z,100016.72
2022-08-26T22:51:40.031Z,100011.03
2022-08-26T22:54:08.044Z,100008.59
2022-08-26T22:56:35.731Z,99993.81
2022-08-26T22:59:04.322Z,100009.75
2022-08-26T23:01:33.577Z,99994.63
2022-08-26T23:04:01.863Z,100005.25
2022-08-26T23:06:29.270Z,100010.97
2022-08-26T23:08:56.518Z,100019.19
2022-08-26T23:11:24.519Z,100034.75
2022-08-26T23:13:52.107Z,100006.97
2022-08-26T23:16:19.691Z,100004.56
2022-08-26T23:18:47.275Z,100027.13
2022-08-26T23:21:14.785Z,100003.19
2022-08-26T23:23:42.273Z,100016.97
2022-08-26T23:26:09.968Z,100012.63
2022-08-26T23:28:38.699Z,100027.06
2022-08-26T23:31:06.358Z,100024.75
2022-08-26T23:33:51.944Z,100012.59
2022-08-26T23:36:22.796Z,100002.81
2022-08-26T23:38:53.671Z,99997.19
2022-08-26T23:41:24.771Z,100012.69
2022-08-26T23:43:52.204Z,100019.28
2022-08-26T23:46:20.480Z,100021.75
2022-08-26T23:48:48.226Z,100027.44
2022-08-26T23:51:34.504Z,100030.34
2022-08-26T23:54:02.093Z,100029.94
2022-08-26T23:56:30.390Z,100025.88
2022-08-26T23:58:58.760Z,100032.41
